Time;durP1;ratioP1;P1;durP2;ratioP2;P2;SDS_P1;SDS_P2;PMS_P1;PMS_P2;Temp;Humidity;BMP_temperature;BMP_pressure;BME280_temperature;BME280_humidity;BME280_pressure;Samples;Min_cycle;Max_cycle;Signal;HPM_P1;HPM_P2
2023/08/23 06:59:59;;;;;;;9.63;4.68;;;;;;;23.99;71.18;96923.16;2085715;28;20572;-65
2023/08/23 07:02:28;;;;;;;9.40;5.55;;;;;;;24.34;70.46;96915.44;2086516;27;20569;-66
2023/08/23 07:05:08;;;;;;;9.80;5.30;;;;;;;24.48;69.40;96920.28;2118264;27;20535;-66
2023/08/23 07:06:11;;;;;;;6.63;5.20;;;;;;;24.87;69.33;96924.53;2115520;28;20192;-66
2023/08/23 07:07:13;;;;;;;7.90;5.28;;;;;;;24.58;70.02;96920.19;2103230;27;20626;-66
2023/08/23 07:08:14;;;;;;;8.43;4.65;;;;;;;24.99;68.87;96918.00;2101132;28;20195;-66
2023/08/23 07:09:16;;;;;;;8.10;4.60;;;;;;;25.05;68.19;96922.72;2099743;28;20705;-66
2023/08/23 07:10:18;;;;;;;10.60;4.70;;;;;;;25.42;67.35;96924.41;2097819;28;20722;-68
2023/08/23 07:11:29;;;;;;;14.63;5.75;;;;;;;25.36;66.89;96924.19;2099021;28;20195;-68
2023/08/23 07:12:31;;;;;;;9.48;4.40;;;;;;;24.82;68.12;96926.84;2097937;28;20227;-68
2023/08/23 07:13:32;;;;;;;7.95;5.35;;;;;;;24.71;69.09;96927.88;2099318;28;20286;-68
2023/08/23 07:14:33;;;;;;;8.45;5.00;;;;;;;24.67;69.51;96926.50;2096259;28;20188;-68
2023/08/23 07:15:35;;;;;;;10.65;5.45;;;;;;;25.10;67.85;96927.59;2096635;28;20245;-68
2023/08/23 07:16:37;;;;;;;12.75;4.80;;;;;;;25.36;67.53;96937.56;2095543;28;20227;-68
2023/08/23 07:17:38;;;;;;;14.98;4.80;;;;;;;25.81;66.12;96925.81;2097488;28;20196;-68
2023/08/23 07:18:40;;;;;;;19.45;5.00;;;;;;;25.81;65.91;96927.69;2099112;28;20211;-68
2023/08/23 07:19:41;;;;;;;9.35;4.20;;;;;;;26.25;64.98;96930.28;2098841;28;20207;-68
2023/08/23 07:20:43;;;;;;;9.93;4.40;;;;;;;25.99;64.87;96935.63;2100394;28;20234;-68
2023/08/23 07:21:44;;;;;;;10.90;4.32;;;;;;;26.11;64.95;96936.25;2095274;28;20249;-68
2023/08/23 07:22:46;;;;;;;5.82;4.45;;;;;;;26.11;64.65;96942.44;2096078;28;20199;-68
2023/08/23 07:23:47;;;;;;;10.13;4.50;;;;;;;26.31;64.23;96935.00;2096803;28;20262;-68
2023/08/23 07:24:50;;;;;;;13.98;4.93;;;;;;;25.86;65.36;96944.09;2098286;28;20208;-70
2023/08/23 07:25:51;;;;;;;47.50;33.70;;;;;;;26.08;64.44;96935.56;2097634;28;20740;-70
2023/08/23 07:26:55;;;;;;;19.08;12.02;;;;;;;26.48;63.40;96937.75;2100044;28;20219;-71
2023/08/23 07:27:56;;;;;;;20.10;12.20;;;;;;;26.48;63.46;96933.22;2101981;28;20636;-70
2023/08/23 07:28:58;;;;;;;17.03;8.70;;;;;;;26.34;63.35;96937.34;2100276;28;20287;-71
2023/08/23 07:30:00;;;;;;;16.20;4.33;;;;;;;26.47;63.81;96931.53;2097379;28;20424;-70
2023/08/23 07:31:03;;;;;;;14.03;4.47;;;;;;;26.85;62.38;96932.00;2096924;28;20443;-69
2023/08/23 07:32:04;;;;;;;11.63;4.40;;;;;;;26.70;63.01;96939.81;2096028;28;20448;-67
2023/08/23 07:33:06;;;;;;;18.60;4.43;;;;;;;26.71;62.62;96938.81;2096086;28;20519;-67
2023/08/23 07:34:07;;;;;;;12.50;4.13;;;;;;;26.69;62.74;96937.28;2094863;28;20425;-68
2023/08/23 07:35:09;;;;;;;11.03;4.30;;;;;;;26.85;62.83;96936.53;2098131;28;20427;-67
2023/08/23 07:36:11;;;;;;;10.40;5.00;;;;;;;27.03;62.16;96937.25;2099697;28;20444;-67
2023/08/23 07:37:12;;;;;;;7.50;4.43;;;;;;;27.40;61.13;96937.81;2095266;28;20456;-67
2023/08/23 07:38:13;;;;;;;13.80;3.97;;;;;;;27.46;60.72;96936.28;2094192;28;20479;-67
2023/08/23 07:39:15;;;;;;;8.27;4.43;;;;;;;27.53;60.06;96940.81;2101410;28;20461;-68
2023/08/23 07:40:17;;;;;;;8.80;4.13;;;;;;;27.92;59.59;96938.41;2099027;28;20982;-67
2023/08/23 07:41:18;;;;;;;7.00;3.53;;;;;;;27.87;59.23;96936.22;2099146;28;20421;-67
2023/08/23 07:42:20;;;;;;;7.00;4.30;;;;;;;27.65;59.31;96932.41;2095770;28;20460;-68
2023/08/23 07:43:21;;;;;;;6.60;3.90;;;;;;;27.79;59.19;96931.72;2098465;28;20476;-67
2023/08/23 07:44:23;;;;;;;8.83;3.83;;;;;;;28.36;58.32;96935.28;2100362;28;20428;-67
2023/08/23 07:45:27;;;;;;;6.43;3.37;;;;;;;27.98;57.83;96927.81;2097833;28;20457;-67
2023/08/23 07:46:28;;;;;;;7.70;3.70;;;;;;;28.08;58.10;96938.41;2094134;28;20453;-68
2023/08/23 07:47:30;;;;;;;8.23;3.30;;;;;;;28.49;57.74;96940.97;2100954;28;20448;-67
2023/08/23 07:48:31;;;;;;;7.33;3.80;;;;;;;28.83;56.22;96937.09;2106410;28;20415;-68
2023/08/23 07:49:33;;;;;;;7.30;3.80;;;;;;;29.17;55.32;96938.56;2104665;28;20471;-67
2023/08/23 07:50:35;;;;;;;7.70;3.67;;;;;;;29.69;53.75;96938.00;2107645;28;20421;-67
2023/08/23 07:51:37;;;;;;;17.27;4.03;;;;;;;29.13;54.54;96939.94;2107087;28;20431;-67
2023/08/23 07:52:38;;;;;;;17.90;4.70;;;;;;;28.73;55.84;96939.16;2104029;28;20458;-67
2023/08/23 07:53:42;;;;;;;13.80;3.47;;;;;;;29.03;55.98;96946.56;2113453;28;20434;-68
2023/08/23 07:54:43;;;;;;;23.40;3.90;;;;;;;29.10;55.46;96937.63;2112221;28;20472;-68
2023/08/23 07:55:45;;;;;;;13.10;3.37;;;;;;;29.33;55.72;96939.47;2104435;28;20459;-70
2023/08/23 07:56:46;;;;;;;8.03;3.50;;;;;;;29.15;55.58;96937.91;2103461;28;20773;-70
2023/08/23 07:57:48;;;;;;;11.77;3.60;;;;;;;29.44;55.17;96944.44;2103959;28;20423;-70
2023/08/23 07:58:50;;;;;;;8.40;3.40;;;;;;;29.29;55.98;96935.47;2107662;28;20426;-70
2023/08/23 07:59:55;;;;;;;6.80;3.27;;;;;;;29.63;55.09;96939.56;2107987;28;21138;-70
2023/08/23 08:00:59;;;;;;;5.70;2.67;;;;;;;29.85;54.78;96943.22;2106798;28;20423;-70
2023/08/23 08:02:00;;;;;;;6.00;2.93;;;;;;;29.75;54.37;96946.19;2107335;28;21014;-70
2023/08/23 08:03:04;;;;;;;11.23;3.83;;;;;;;29.38;54.18;96941.63;2107895;28;20431;-70
2023/08/23 08:04:06;;;;;;;6.10;3.00;;;;;;;29.17;54.77;96945.81;2107304;28;20477;-70
2023/08/23 08:05:08;;;;;;;6.17;3.37;;;;;;;29.06;54.97;96941.66;2109990;28;20447;-70
2023/08/23 08:06:10;;;;;;;8.07;3.07;;;;;;;29.28;54.51;96940.03;2109567;28;20430;-70
2023/08/23 08:07:11;;;;;;;5.63;3.53;;;;;;;29.53;54.60;96947.06;2109996;28;21065;-70
2023/08/23 08:08:23;;;;;;;9.53;2.83;;;;;;;29.89;54.59;96946.41;2114398;28;20460;-70
2023/08/23 08:09:25;;;;;;;5.73;3.50;;;;;;;29.70;54.00;96951.28;2106373;28;20453;-69
2023/08/23 08:10:27;;;;;;;7.23;3.50;;;;;;;28.73;55.80;96941.84;2106902;28;20427;-69
2023/08/23 08:11:28;;;;;;;8.80;3.53;;;;;;;28.69;56.86;96943.22;2107098;28;20424;-68
2023/08/23 08:12:30;;;;;;;7.30;3.23;;;;;;;28.80;56.60;96940.16;2107578;28;20496;-68
2023/08/23 08:13:32;;;;;;;9.10;3.37;;;;;;;28.77;56.72;96942.34;2107763;28;20434;-68
2023/08/23 08:14:33;;;;;;;9.03;3.70;;;;;;;28.33;57.44;96941.03;2106816;28;20423;-69
2023/08/23 08:15:34;;;;;;;10.30;3.87;;;;;;;28.54;57.52;96942.28;2106317;28;20430;-69
2023/08/23 08:16:36;;;;;;;15.80;3.60;;;;;;;28.46;57.43;96935.09;2109168;28;20427;-69
2023/08/23 08:17:37;;;;;;;12.43;4.30;;;;;;;28.71;56.60;96940.34;2109804;28;20754;-69
2023/08/23 08:18:40;;;;;;;14.00;3.47;;;;;;;29.49;55.80;96942.03;2101633;28;20436;-69
2023/08/23 08:19:42;;;;;;;7.77;3.50;;;;;;;29.46;54.41;96945.09;2099909;28;20447;-69
2023/08/23 08:20:47;;;;;;;7.73;2.63;;;;;;;29.43;55.56;96944.63;2099069;28;20432;-69
2023/08/23 08:21:48;;;;;;;12.30;3.60;;;;;;;28.79;55.33;96943.00;2100260;28;20895;-69
2023/08/23 08:22:50;;;;;;;9.53;3.23;;;;;;;28.52;56.82;96945.97;2099670;28;20511;-69
2023/08/23 08:23:51;;;;;;;12.00;3.37;;;;;;;29.12;55.73;96937.44;2099227;28;20876;-68
2023/08/23 08:24:53;;;;;;;7.23;3.60;;;;;;;29.60;54.49;96940.78;2100320;28;20428;-68
2023/08/23 08:25:54;;;;;;;9.43;3.33;;;;;;;30.10;54.44;96943.00;2099754;28;20525;-70
2023/08/23 08:26:56;;;;;;;10.03;6.33;;;;;;;30.10;52.83;96940.31;2098055;28;20474;-70
2023/08/23 08:27:58;;;;;;;5.53;3.43;;;;;;;28.73;55.65;96941.84;2097787;28;20435;-70
2023/08/23 08:28:59;;;;;;;16.60;9.90;;;;;;;29.08;56.17;96942.31;2098432;28;20985;-70
2023/08/23 08:30:02;;;;;;;14.23;10.77;;;;;;;29.10;55.09;96939.47;2098950;28;20460;-69
2023/08/23 08:31:04;;;;;;;16.13;6.90;;;;;;;29.26;55.52;96951.97;2097406;28;20428;-70
2023/08/23 08:32:05;;;;;;;12.50;6.57;;;;;;;29.56;55.68;96947.53;2095876;28;20515;-70
2023/08/23 08:33:07;;;;;;;7.90;3.80;;;;;;;30.16;53.97;96941.41;2103109;28;20511;-69
2023/08/23 08:34:09;;;;;;;8.60;3.13;;;;;;;30.11;54.38;96945.50;2099982;28;20937;-70
2023/08/23 08:35:10;;;;;;;4.73;2.80;;;;;;;30.13;52.73;96951.56;2101676;28;20421;-70
2023/08/23 08:36:12;;;;;;;8.13;3.40;;;;;;;30.36;52.97;96947.09;2099345;28;20450;-71
2023/08/23 08:37:15;;;;;;;8.47;3.40;;;;;;;30.29;53.32;96953.22;2097017;28;20918;-71
2023/08/23 08:38:16;;;;;;;22.07;3.80;;;;;;;30.28;53.73;96956.09;2106402;28;20448;-70
2023/08/23 08:39:18;;;;;;;13.43;4.03;;;;;;;29.65;53.37;96946.44;2107554;28;20473;-70
2023/08/23 08:40:21;;;;;;;18.30;3.80;;;;;;;29.14;55.29;96944.31;2100335;28;20418;-71
2023/08/23 08:41:24;;;;;;;21.90;3.47;;;;;;;30.18;53.68;96944.78;2101120;28;20428;-71
2023/08/23 08:42:26;;;;;;;6.90;3.40;;;;;;;30.50;53.02;96946.28;2099108;28;20835;-70
2023/08/23 08:43:28;;;;;;;13.40;9.40;;;;;;;30.49;52.46;96949.16;2098927;28;20737;-71
2023/08/23 08:44:29;;;;;;;23.50;9.37;;;;;;;30.61;52.12;96940.41;2099990;28;20440;-71
2023/08/23 08:45:31;;;;;;;22.37;12.47;;;;;;;30.61;52.63;96936.88;2101954;28;20490;-71
2023/08/23 08:46:33;;;;;;;23.40;17.20;;;;;;;30.22;52.56;96946.06;2102015;28;20423;-70
2023/08/23 08:47:35;;;;;;;12.43;3.20;;;;;;;30.38;52.72;96943.19;2100048;28;20436;-70
2023/08/23 08:48:36;;;;;;;8.93;3.20;;;;;;;30.43;52.46;96942.63;2103353;28;20435;-70
2023/08/23 08:49:38;;;;;;;5.40;3.07;;;;;;;30.87;51.87;96943.63;2100782;28;20433;-70
2023/08/23 08:50:41;;;;;;;16.30;3.33;;;;;;;30.83;51.77;96948.56;2101195;28;20432;-70
2023/08/23 08:51:46;;;;;;;6.97;3.13;;;;;;;30.56;51.11;96948.22;2099784;28;20431;-71
2023/08/23 08:52:52;;;;;;;8.10;3.37;;;;;;;30.35;52.43;96946.25;2102069;28;20428;-68
2023/08/23 08:53:54;;;;;;;4.80;2.93;;;;;;;30.72;52.50;96949.03;2097898;28;20506;-68
2023/08/23 08:54:58;;;;;;;4.90;2.90;;;;;;;31.06;52.13;96956.50;2101287;28;20796;-68
2023/08/23 08:56:00;;;;;;;7.97;3.30;;;;;;;31.24;50.89;96947.13;2100176;28;20427;-68
2023/08/23 08:57:03;;;;;;;9.23;3.60;;;;;;;31.14;51.27;96955.53;2101206;28;20602;-68
2023/08/23 08:58:06;;;;;;;8.13;3.40;;;;;;;31.16;50.49;96958.91;2099125;28;20482;-69
2023/08/23 08:59:08;;;;;;;6.40;3.07;;;;;;;30.60;50.88;96956.75;2099765;28;20498;-69
2023/08/23 09:00:10;;;;;;;10.80;3.60;;;;;;;30.11;51.90;96958.16;2099127;28;20958;-69
2023/08/23 09:01:13;;;;;;;8.50;3.20;;;;;;;30.22;52.31;96960.38;2104700;28;20435;-68
2023/08/23 09:02:18;;;;;;;7.93;3.07;;;;;;;30.59;51.93;96963.19;2106417;28;20462;-68
2023/08/23 09:03:20;;;;;;;5.70;2.77;;;;;;;30.78;51.41;96953.69;2099380;28;20417;-69
2023/08/23 09:04:21;;;;;;;6.23;3.13;;;;;;;30.33;52.03;96958.25;2097326;28;20460;-69
2023/08/23 09:05:24;;;;;;;11.83;3.10;;;;;;;30.27;52.45;96966.03;2099740;28;20431;-69
2023/08/23 09:06:27;;;;;;;7.57;2.70;;;;;;;30.66;52.01;96964.09;2099258;28;20523;-70
2023/08/23 09:07:28;;;;;;;9.93;2.97;;;;;;;30.69;51.56;96965.56;2098246;28;21258;-69
2023/08/23 09:08:31;;;;;;;11.83;3.33;;;;;;;30.75;51.24;96959.44;2100239;28;20431;-69
2023/08/23 09:09:33;;;;;;;5.73;3.03;;;;;;;30.27;51.97;96959.81;2099918;28;20436;-69
2023/08/23 09:10:34;;;;;;;5.57;3.27;;;;;;;30.77;51.82;96966.28;2101647;28;20428;-70
2023/08/23 09:11:36;;;;;;;7.47;3.20;;;;;;;30.46;51.51;96964.66;2101149;28;20428;-69
2023/08/23 09:12:37;;;;;;;8.27;3.27;;;;;;;30.72;51.39;96959.81;2098850;28;20485;-69
2023/08/23 09:13:39;;;;;;;8.93;3.00;;;;;;;30.84;50.75;96960.16;2099320;28;20435;-70
2023/08/23 09:14:40;;;;;;;11.63;3.50;;;;;;;29.99;52.68;96965.00;2100422;28;20449;-70
2023/08/23 09:15:46;;;;;;;7.70;2.87;;;;;;;30.52;52.13;96970.34;2097235;28;20427;-70
2023/08/23 09:16:47;;;;;;;10.87;2.77;;;;;;;31.16;51.31;96964.28;2099282;28;20433;-69
2023/08/23 09:17:52;;;;;;;6.90;3.00;;;;;;;31.44;50.86;96958.13;2099506;28;20812;-69
2023/08/23 09:18:56;;;;;;;7.20;3.00;;;;;;;31.56;49.68;96964.66;2101986;28;20420;-69
2023/08/23 09:19:57;;;;;;;6.43;3.33;;;;;;;31.39;49.61;96963.28;2100576;28;20522;-69
2023/08/23 09:21:00;;;;;;;6.93;3.50;;;;;;;30.41;52.03;96969.75;2098941;28;20432;-70
2023/08/23 09:22:03;;;;;;;7.73;3.50;;;;;;;30.94;51.28;96963.38;2100143;28;20451;-69
2023/08/23 09:23:04;;;;;;;8.10;2.90;;;;;;;30.98;51.99;96969.22;2099777;28;20508;-69
2023/08/23 09:24:05;;;;;;;5.37;2.87;;;;;;;30.89;51.19;96958.56;2098694;28;20491;-70
2023/08/23 09:25:08;;;;;;;4.93;2.93;;;;;;;31.04;51.20;96968.47;2096449;28;20485;-69
2023/08/23 09:26:09;;;;;;;7.10;3.57;;;;;;;31.29;50.55;96963.56;2094474;28;20499;-69
2023/08/23 09:27:11;;;;;;;6.87;2.90;;;;;;;31.21;50.19;96961.84;2098154;28;20448;-69
2023/08/23 09:28:32;;;;;;;6.80;3.30;;;;;;;30.61;50.58;96959.28;2098378;28;20513;-69
2023/08/23 09:29:34;;;;;;;6.87;3.30;;;;;;;31.04;50.45;96952.28;2100724;28;20431;-69
2023/08/23 09:30:36;;;;;;;8.57;3.80;;;;;;;31.68;49.40;96953.34;2101994;28;20863;-69
2023/08/23 09:31:40;;;;;;;8.40;3.00;;;;;;;31.80;48.72;96951.81;2099144;28;20428;-69
2023/08/23 09:32:42;;;;;;;15.33;3.57;;;;;;;31.68;49.30;96953.34;2097721;28;20479;-69
2023/08/23 09:33:45;;;;;;;7.70;3.33;;;;;;;31.67;50.10;96951.69;2097202;28;20428;-69
2023/08/23 09:34:47;;;;;;;6.33;2.80;;;;;;;31.63;50.00;96951.25;2096234;28;20478;-69
2023/08/23 09:35:49;;;;;;;10.30;3.33;;;;;;;31.57;49.80;96955.53;2096351;28;20421;-69
2023/08/23 09:36:51;;;;;;;10.20;3.47;;;;;;;31.59;49.66;96941.84;2086461;28;20442;-69
2023/08/23 09:37:54;;;;;;;7.90;3.10;;;;;;;31.49;49.74;96955.69;2087260;28;20425;-69
2023/08/23 09:38:59;;;;;;;6.23;2.90;;;;;;;30.95;50.93;96941.63;2102606;28;20423;-69
2023/08/23 09:40:00;;;;;;;10.87;3.37;;;;;;;31.01;50.41;96936.47;2100808;28;20416;-69
2023/08/23 09:41:02;;;;;;;10.00;2.80;;;;;;;31.31;50.01;96941.81;2098925;28;20427;-69
2023/08/23 09:42:13;;;;;;;5.77;2.90;;;;;;;31.72;49.58;96942.00;2102837;28;20450;-69
2023/08/23 09:43:16;;;;;;;7.10;3.23;;;;;;;30.75;50.09;96937.88;2101316;28;20454;-69
2023/08/23 09:44:20;;;;;;;12.87;3.63;;;;;;;30.60;50.85;96937.88;2096313;28;20515;-69
2023/08/23 09:45:22;;;;;;;9.10;3.87;;;;;;;30.60;51.09;96941.44;2095763;28;20432;-69
2023/08/23 09:46:25;;;;;;;10.50;3.13;;;;;;;30.96;50.45;96934.38;2099178;28;20551;-69
2023/08/23 09:47:32;;;;;;;10.10;3.40;;;;;;;31.23;49.60;96935.50;2097806;28;20494;-69
2023/08/23 09:48:36;;;;;;;9.23;3.10;;;;;;;30.56;50.65;96934.75;2099391;28;20428;-68
2023/08/23 09:49:40;;;;;;;7.33;3.07;;;;;;;30.55;50.91;96945.69;2099931;28;20425;-69
2023/08/23 09:50:42;;;;;;;7.30;3.07;;;;;;;31.17;50.29;96938.97;2098270;28;20472;-69
2023/08/23 09:51:48;;;;;;;8.60;3.00;;;;;;;31.68;49.52;96942.56;2096599;28;20471;-68
2023/08/23 09:52:52;;;;;;;11.27;3.27;;;;;;;31.48;49.74;96942.34;2096505;28;20472;-69
2023/08/23 09:53:58;;;;;;;17.23;4.00;;;;;;;32.01;49.39;96950.91;2098752;28;20950;-69
2023/08/23 09:55:08;;;;;;;5.60;3.10;;;;;;;32.41;49.07;96953.06;2102379;28;20430;-69
2023/08/23 09:56:16;;;;;;;10.43;5.70;;;;;;;32.74;47.80;96940.75;2098040;28;20946;-71
2023/08/23 09:57:18;;;;;;;7.87;4.70;;;;;;;32.67;47.74;96955.06;2098740;28;20523;-70
2023/08/23 09:58:20;;;;;;;11.67;3.97;;;;;;;32.49;47.90;96950.16;2100537;28;20428;-70
2023/08/23 09:59:23;;;;;;;5.93;3.00;;;;;;;32.33;48.29;96940.53;2102281;28;20938;-68
2023/08/23 10:00:25;;;;;;;4.20;2.60;;;;;;;31.55;49.54;96940.56;2103334;28;20955;-69
2023/08/23 10:01:27;;;;;;;8.83;3.40;;;;;;;31.52;49.96;96947.19;2100110;28;20940;-69
2023/08/23 10:02:35;;;;;;;8.97;3.47;;;;;;;32.05;49.57;96946.78;2090135;28;20430;-69
2023/08/23 10:03:37;;;;;;;7.10;2.63;;;;;;;32.63;48.15;96940.25;2094301;28;20433;-69
2023/08/23 10:04:42;;;;;;;6.43;2.73;;;;;;;32.76;47.54;96933.25;2091743;28;20460;-69
2023/08/23 10:05:45;;;;;;;8.70;3.30;;;;;;;30.95;49.13;96941.63;2090428;28;20525;-69
2023/08/23 10:06:48;;;;;;;11.60;2.80;;;;;;;31.54;48.81;96936.19;2089948;28;20503;-69
2023/08/23 10:07:51;;;;;;;7.83;3.07;;;;;;;32.50;47.80;96937.50;2094240;28;20987;-69
2023/08/23 10:08:56;;;;;;;6.00;2.93;;;;;;;32.80;47.50;96935.38;2088770;28;20428;-69
2023/08/23 10:09:57;;;;;;;6.07;2.93;;;;;;;31.80;47.57;96932.09;2089354;28;20960;-69
2023/08/23 10:10:59;;;;;;;5.13;2.93;;;;;;;30.01;50.79;96933.38;2092691;28;20421;-68
2023/08/23 10:12:03;;;;;;;13.00;2.73;;;;;;;30.00;52.02;96934.38;2091473;28;20452;-68
2023/08/23 10:13:06;;;;;;;7.60;3.60;;;;;;;31.70;49.51;96929.72;2089400;28;20504;-69
2023/08/23 10:14:09;;;;;;;7.37;3.07;;;;;;;32.73;48.20;96934.47;2090553;28;20437;-69
2023/08/23 10:15:13;;;;;;;10.63;3.20;;;;;;;32.75;48.32;96932.44;2088636;28;20555;-69
2023/08/23 10:16:15;;;;;;;13.03;3.20;;;;;;;33.57;46.23;96928.88;2088037;28;20989;-69
2023/08/23 10:17:19;;;;;;;10.83;2.47;;;;;;;33.47;45.72;96931.97;2088976;28;20461;-69
2023/08/23 10:18:22;;;;;;;6.57;3.20;;;;;;;32.68;46.01;96932.41;2088412;28;20567;-69
2023/08/23 10:19:24;;;;;;;7.37;2.87;;;;;;;32.72;46.97;96930.94;2090191;28;20432;-69
2023/08/23 10:20:25;;;;;;;6.20;2.60;;;;;;;33.17;47.11;96938.56;2091998;28;20425;-69
2023/08/23 10:21:27;;;;;;;6.20;2.60;;;;;;;33.88;45.81;96924.69;2091226;28;20432;-69
2023/08/23 10:22:28;;;;;;;5.70;3.00;;;;;;;32.92;46.61;96932.06;2092463;28;20468;-69
2023/08/23 10:23:36;;;;;;;5.10;3.10;;;;;;;33.78;45.92;96938.66;2090620;28;20486;-70
2023/08/23 10:24:37;;;;;;;7.00;2.50;;;;;;;34.37;45.04;96939.63;2092945;28;20424;-69
2023/08/23 10:25:41;;;;;;;5.57;3.57;;;;;;;33.44;46.03;96941.34;2094357;28;20425;-69
2023/08/23 10:26:52;;;;;;;8.83;2.60;;;;;;;33.51;46.29;96939.47;2087610;28;20506;-69
2023/08/23 10:27:55;;;;;;;11.60;2.47;;;;;;;33.70;45.98;96942.41;2092945;28;20844;-70
2023/08/23 10:29:00;;;;;;;6.77;2.73;;;;;;;33.59;45.26;96933.03;2091063;28;20912;-69
2023/08/23 10:30:08;;;;;;;5.57;2.80;;;;;;;34.22;44.80;96931.75;2091163;28;20417;-70
2023/08/23 10:31:26;;;;;;;6.97;3.20;;;;;;;34.22;45.04;96948.00;2091337;28;20425;-69
2023/08/23 10:32:36;;;;;;;8.03;2.80;;;;;;;34.25;43.58;96942.13;2091226;28;20456;-69
2023/08/23 10:33:39;;;;;;;6.83;2.63;;;;;;;34.44;44.02;96945.88;2090858;28;20467;-70
2023/08/23 10:34:41;;;;;;;9.40;2.50;;;;;;;34.46;44.06;96948.34;2087702;28;20451;-70
2023/08/23 10:35:45;;;;;;;4.90;2.33;;;;;;;34.95;43.97;96948.81;2091440;28;20429;-70
2023/08/23 10:36:46;;;;;;;3.67;2.37;;;;;;;34.41;43.67;96943.59;2090916;28;20446;-70
2023/08/23 10:37:48;;;;;;;11.83;3.17;;;;;;;34.29;44.55;96946.09;2091546;28;20969;-69
2023/08/23 10:38:50;;;;;;;9.97;3.33;;;;;;;33.25;45.38;96944.84;2092046;28;20475;-70
2023/08/23 10:39:54;;;;;;;12.23;3.40;;;;;;;33.99;44.87;96951.13;2090972;28;20611;-70
2023/08/23 10:40:59;;;;;;;5.23;2.80;;;;;;;34.48;44.42;96946.28;2091729;28;20441;-69
2023/08/23 10:42:02;;;;;;;6.40;2.57;;;;;;;35.09;43.60;96944.97;2091249;28;20449;-69
2023/08/23 10:43:16;;;;;;;5.53;3.57;;;;;;;35.36;43.13;96950.25;2090485;28;20425;-70
2023/08/23 10:44:18;;;;;;;15.40;3.10;;;;;;;34.68;43.34;96938.06;2090568;28;20466;-70
2023/08/23 10:45:19;;;;;;;6.43;2.60;;;;;;;34.17;44.24;96936.97;2089222;28;20470;-70
2023/08/23 10:46:22;;;;;;;10.03;3.57;;;;;;;32.53;46.43;96940.66;2089855;28;20455;-69
2023/08/23 10:47:24;;;;;;;7.37;3.00;;;;;;;30.69;48.38;96944.00;2089042;28;20469;-69
2023/08/23 10:48:26;;;;;;;8.90;3.40;;;;;;;30.66;49.60;96936.31;2092604;28;20881;-70
2023/08/23 10:49:28;;;;;;;8.93;3.10;;;;;;;32.15;47.33;96945.59;2092968;28;21181;-69
2023/08/23 10:50:29;;;;;;;11.60;3.13;;;;;;;33.58;45.37;96944.88;2090040;28;20433;-69
2023/08/23 10:51:31;;;;;;;8.60;3.80;;;;;;;33.67;45.59;96943.66;2099014;28;20982;-69
2023/08/23 10:52:33;;;;;;;5.60;2.60;;;;;;;34.07;45.29;96945.53;2101639;28;20427;-70
2023/08/23 10:53:34;;;;;;;7.43;2.80;;;;;;;34.83;43.99;96945.94;2088074;28;20471;-70
2023/08/23 10:54:36;;;;;;;11.47;4.07;;;;;;;33.16;45.78;96946.91;2091740;28;20457;-69
2023/08/23 10:55:37;;;;;;;6.87;2.80;;;;;;;34.20;45.40;96944.66;2089368;28;20932;-69
2023/08/23 10:56:39;;;;;;;4.43;2.50;;;;;;;34.45;44.31;96946.69;2087564;28;20432;-70
2023/08/23 10:57:41;;;;;;;6.10;3.20;;;;;;;34.57;44.09;96944.97;2087601;28;20422;-70
2023/08/23 10:58:44;;;;;;;5.37;2.67;;;;;;;34.93;43.75;96946.31;2093924;28;20424;-70
2023/08/23 10:59:45;;;;;;;11.37;3.37;;;;;;;35.14;43.15;96936.19;2091980;28;20436;-70
2023/08/23 11:00:53;;;;;;;4.60;2.63;;;;;;;35.73;42.19;96938.69;2090962;28;20428;-70
2023/08/23 11:01:55;;;;;;;11.07;2.90;;;;;;;35.83;42.17;96938.19;2088868;28;20453;-70
2023/08/23 11:02:56;;;;;;;3.80;2.90;;;;;;;33.17;45.84;96938.56;2090961;28;20469;-70
2023/08/23 11:03:59;;;;;;;5.00;3.10;;;;;;;32.18;47.54;96942.50;2090848;28;20429;-70
2023/08/23 11:05:00;;;;;;;6.93;3.10;;;;;;;32.95;46.53;96935.22;2088981;28;20548;-69
2023/08/23 11:06:02;;;;;;;8.77;3.00;;;;;;;32.36;47.39;96928.50;2088919;28;20511;-70
2023/08/23 11:07:04;;;;;;;7.63;3.00;;;;;;;33.24;46.36;96935.88;2086937;28;20453;-69
2023/08/23 11:08:05;;;;;;;5.20;3.00;;;;;;;33.62;45.48;96931.78;2090631;28;20413;-70
2023/08/23 11:09:07;;;;;;;5.97;3.20;;;;;;;33.85;45.49;96936.78;2091612;28;20430;-69
2023/08/23 11:10:09;;;;;;;6.50;2.60;;;;;;;33.46;45.38;96939.28;2084752;28;20516;-70
2023/08/23 11:11:12;;;;;;;8.13;2.87;;;;;;;33.18;46.61;96932.13;2089290;28;20432;-70
2023/08/23 11:12:13;;;;;;;8.47;2.90;;;;;;;33.36;46.51;96936.16;2088269;28;20854;-69
2023/08/23 11:13:14;;;;;;;7.00;2.70;;;;;;;33.53;45.55;96932.00;2087378;28;20520;-70
2023/08/23 11:14:16;;;;;;;4.20;2.30;;;;;;;34.73;44.25;96935.53;2085817;28;20438;-71
2023/08/23 11:15:19;;;;;;;7.00;3.37;;;;;;;34.72;44.18;96935.78;2087834;28;20432;-72
2023/08/23 11:16:22;;;;;;;16.27;10.97;;;;;;;35.55;42.86;96937.59;2092802;28;20508;-72
2023/08/23 11:17:24;;;;;;;64.20;55.23;;;;;;;36.08;42.01;96932.78;2097381;28;20551;-71
2023/08/23 11:18:26;;;;;;;12.90;8.23;;;;;;;34.95;42.91;96929.84;2091300;28;20512;-71
2023/08/23 11:19:28;;;;;;;5.00;2.67;;;;;;;35.01;43.49;96934.38;2090620;28;20974;-71
2023/08/23 11:20:29;;;;;;;12.10;3.87;;;;;;;34.15;44.11;96917.38;2091627;28;20519;-71
2023/08/23 11:21:32;;;;;;;12.30;2.83;;;;;;;35.58;43.45;96926.28;2088786;28;20426;-69
2023/08/23 11:22:33;;;;;;;6.50;2.50;;;;;;;35.08;43.58;96924.31;2089140;28;20428;-71
2023/08/23 11:23:38;;;;;;;11.87;3.53;;;;;;;35.14;42.98;96925.34;2089224;28;20433;-71
2023/08/23 11:24:39;;;;;;;6.40;3.03;;;;;;;34.52;43.81;96925.81;2089650;28;20938;-71
2023/08/23 11:25:41;;;;;;;5.10;2.77;;;;;;;34.77;43.85;96925.91;2087711;28;20499;-71
2023/08/23 11:26:43;;;;;;;5.30;3.23;;;;;;;33.87;44.75;96926.59;2088239;28;20425;-70
2023/08/23 11:27:44;;;;;;;4.67;2.50;;;;;;;34.19;44.29;96926.72;2097192;28;20424;-70
2023/08/23 11:28:47;;;;;;;6.67;2.83;;;;;;;34.25;44.26;96925.88;2100319;28;20433;-71
2023/08/23 11:29:48;;;;;;;7.43;2.97;;;;;;;34.69;43.86;96933.47;2095755;28;20973;-70
2023/08/23 11:30:50;;;;;;;3.33;2.40;;;;;;;34.27;43.92;96931.94;2095809;28;20425;-70
2023/08/23 11:31:54;;;;;;;4.53;2.97;;;;;;;34.61;44.24;96921.81;2093831;28;20491;-70
2023/08/23 11:32:57;;;;;;;9.60;2.40;;;;;;;35.07;43.39;96919.09;2092432;28;21139;-71
2023/08/23 11:34:09;;;;;;;9.97;3.23;;;;;;;34.21;43.43;96924.66;2091549;28;20434;-70
2023/08/23 11:35:10;;;;;;;8.60;3.30;;;;;;;33.59;44.94;96930.31;2091190;28;20424;-70
2023/08/23 11:36:12;;;;;;;7.33;3.40;;;;;;;33.42;45.07;96918.25;2089726;28;21139;-70
2023/08/23 11:37:13;;;;;;;6.00;2.73;;;;;;;34.12;44.13;96917.78;2090615;28;20459;-70
2023/08/23 11:38:15;;;;;;;12.60;3.17;;;;;;;35.05;43.13;96915.81;2090469;28;20420;-70
2023/08/23 11:39:16;;;;;;;6.03;3.10;;;;;;;34.30;44.55;96920.66;2087879;28;20482;-70
2023/08/23 11:40:18;;;;;;;5.20;2.90;;;;;;;34.88;43.82;96919.03;2088350;28;20444;-70
2023/08/23 11:41:30;;;;;;;8.17;2.30;;;;;;;35.34;42.63;96918.94;2090057;28;20437;-70
2023/08/23 11:42:32;;;;;;;13.73;3.20;;;;;;;34.90;43.29;96922.34;2090462;28;20815;-70
2023/08/23 11:43:33;;;;;;;5.77;2.40;;;;;;;35.23;43.68;96923.19;2090166;28;20436;-70
2023/08/23 11:44:35;;;;;;;6.63;3.07;;;;;;;36.09;41.95;96923.56;2084767;28;20421;-71
2023/08/23 11:45:37;;;;;;;6.07;3.40;;;;;;;35.28;42.12;96923.38;2091043;28;20771;-70
2023/08/23 11:46:39;;;;;;;8.47;2.73;;;;;;;36.10;42.21;96925.19;2094645;28;20767;-70
2023/08/23 11:47:41;;;;;;;8.67;2.87;;;;;;;35.36;41.96;96927.72;2091947;28;20514;-69
2023/08/23 11:48:42;;;;;;;6.63;3.37;;;;;;;35.08;42.47;96926.22;2090720;28;20454;-70
2023/08/23 11:49:46;;;;;;;10.27;3.00;;;;;;;34.79;42.65;96921.13;2092122;28;20480;-70
2023/08/23 11:50:49;;;;;;;9.23;3.47;;;;;;;35.49;42.38;96922.22;2090507;28;20481;-70
2023/08/23 11:51:52;;;;;;;7.33;3.13;;;;;;;34.38;44.60;96930.47;2088292;28;20776;-69
2023/08/23 11:52:53;;;;;;;3.87;2.80;;;;;;;34.95;43.57;96919.81;2089113;28;20430;-70
2023/08/23 11:53:55;;;;;;;6.37;2.50;;;;;;;36.17;42.31;96917.81;2087291;28;20425;-70
2023/08/23 11:54:57;;;;;;;11.10;3.30;;;;;;;36.71;41.58;96926.22;2089658;28;20815;-70
2023/08/23 11:55:59;;;;;;;5.27;2.77;;;;;;;37.35;40.49;96923.06;2094728;28;20420;-70
2023/08/23 11:57:01;;;;;;;14.93;2.77;;;;;;;36.67;41.24;96929.63;2090779;28;20542;-69